Startpagina
METAR-TAF:

METAR-TAF

Vliegvelden :

Flughafen Köln-Bonn

Keulen, Duitsland

breedte: 50-52N, lengte: 007-10E, hoogte: 91 m

Actueel weer

Dit bericht is 13 minuten geleden gemaakt, om 17:50 UTC
Wind 4 kt uit het noorden
Temperatuur 13°C
Vochtigheid 62%
Druk 1026 hPa
Zicht 10 km of meer
geen wolken onder 1500 m en geen cumulonimbus

METAR: EDDK 181750Z 01004KT CAVOK 13/06 Q1026 NOSIG

Tijdstip: 20:03 (18:03 UTC)

Verwachting

Dit bericht is 1 uur en het 3 minuten geleden gemaakt, om 17:00 UTC
Verwachting geldig van 18 om 18 UTC tot 19 om 24 UTC
Wind 8 kt uit het noorden
Zicht 10 km of meer
geen wolken onder 1500 m en geen cumulonimbus
Wijzigt naar
van 18 om 18 UTC tot 18 om 21 UTC
Wind 3 kt uit variabele richting
Wijzigt naar
van 19 om 10 UTC tot 19 om 12 UTC
Wind 6 kt uit het noorden
Wijzigt naar
van 19 om 17 UTC tot 19 om 20 UTC
Wind 3 kt uit variabele richting

TAF: EDDK 181700Z 1818/1924 36008KT CAVOK BECMG 1818/1821 VRB03KT BECMG 1910/1912 01006KT BECMG 1917/1920 VRB03KT

Waarnemingen en weersverwachtingen van meer dan 4000 vliegvelden (METAR en TAF).

De beschikbare stations zijn de gele en rode punten op de kaart.

Ga met uw muis naar het station om de naam te zien.

Klik dan om waarnemingen en weersverwachtingen te zien.

kaart wijzigen: klik op de groene knoppen met een zwart kruis om in te zoomen, op de groene knop met een streepje om uit te zoomen of op de groene pijlen voor aangrenzende kaarten.


METAR-TAF: